sensor_id;sensor_type;location;lat;lon;timestamp;P1;durP1;ratioP1;P2;durP2;ratioP2
78443;SDS011;67739;52.986;8.894;2023-04-01T00:01:54;9.57;;;3.67;;
78443;SDS011;67739;52.986;8.894;2023-04-01T00:04:19;9.35;;;4.18;;
78443;SDS011;67739;52.986;8.894;2023-04-01T00:06:45;10.20;;;3.95;;
78443;SDS011;67739;52.986;8.894;2023-04-01T00:09:12;9.82;;;3.85;;
78443;SDS011;67739;52.986;8.894;2023-04-01T00:11:38;11.95;;;4.65;;
78443;SDS011;67739;52.986;8.894;2023-04-01T00:14:03;9.25;;;3.53;;
78443;SDS011;67739;52.986;8.894;2023-04-01T00:16:29;8.70;;;3.65;;
78443;SDS011;67739;52.986;8.894;2023-04-01T00:18:55;10.70;;;3.90;;
78443;SDS011;67739;52.986;8.894;2023-04-01T00:21:20;10.80;;;4.07;;
78443;SDS011;67739;52.986;8.894;2023-04-01T00:23:47;15.13;;;4.47;;
78443;SDS011;67739;52.986;8.894;2023-04-01T00:26:12;10.50;;;4.03;;
78443;SDS011;67739;52.986;8.894;2023-04-01T00:28:39;9.25;;;3.97;;
78443;SDS011;67739;52.986;8.894;2023-04-01T00:31:08;10.18;;;4.05;;
78443;SDS011;67739;52.986;8.894;2023-04-01T00:33:35;13.65;;;4.40;;
78443;SDS011;67739;52.986;8.894;2023-04-01T00:38:36;11.05;;;4.40;;
78443;SDS011;67739;52.986;8.894;2023-04-01T00:41:03;11.07;;;4.63;;
78443;SDS011;67739;52.986;8.894;2023-04-01T00:43:29;8.82;;;4.00;;
78443;SDS011;67739;52.986;8.894;2023-04-01T00:45:55;9.70;;;3.85;;
78443;SDS011;67739;52.986;8.894;2023-04-01T00:48:22;9.88;;;3.85;;
78443;SDS011;67739;52.986;8.894;2023-04-01T00:50:51;12.02;;;5.15;;
78443;SDS011;67739;52.986;8.894;2023-04-01T00:53:20;11.68;;;4.68;;
78443;SDS011;67739;52.986;8.894;2023-04-01T00:58:48;9.32;;;3.63;;
78443;SDS011;67739;52.986;8.894;2023-04-01T01:01:17;8.70;;;3.42;;
78443;SDS011;67739;52.986;8.894;2023-04-01T01:03:43;9.85;;;4.50;;
78443;SDS011;67739;52.986;8.894;2023-04-01T01:09:06;10.27;;;4.10;;
78443;SDS011;67739;52.986;8.894;2023-04-01T01:27:46;10.75;;;4.53;;
78443;SDS011;67739;52.986;8.894;2023-04-01T01:30:37;10.70;;;4.13;;
78443;SDS011;67739;52.986;8.894;2023-04-01T01:35:55;9.57;;;3.85;;
78443;SDS011;67739;52.986;8.894;2023-04-01T01:38:27;12.23;;;4.65;;
78443;SDS011;67739;52.986;8.894;2023-04-01T01:40:56;9.25;;;4.60;;
78443;SDS011;67739;52.986;8.894;2023-04-01T01:43:25;9.80;;;4.55;;
78443;SDS011;67739;52.986;8.894;2023-04-01T01:45:55;9.80;;;4.28;;
78443;SDS011;67739;52.986;8.894;2023-04-01T01:48:24;8.32;;;4.28;;
78443;SDS011;67739;52.986;8.894;2023-04-01T01:50:52;11.27;;;4.50;;
78443;SDS011;67739;52.986;8.894;2023-04-01T01:53:18;10.52;;;4.30;;
78443;SDS011;67739;52.986;8.894;2023-04-01T01:55:44;9.60;;;4.55;;
78443;SDS011;67739;52.986;8.894;2023-04-01T02:01:11;10.02;;;4.40;;
78443;SDS011;67739;52.986;8.894;2023-04-01T02:03:39;9.27;;;4.10;;
78443;SDS011;67739;52.986;8.894;2023-04-01T02:06:07;12.73;;;5.18;;
78443;SDS011;67739;52.986;8.894;2023-04-01T02:08:36;9.32;;;4.25;;
78443;SDS011;67739;52.986;8.894;2023-04-01T02:11:07;11.02;;;5.05;;
78443;SDS011;67739;52.986;8.894;2023-04-01T02:13:36;9.75;;;4.30;;
78443;SDS011;67739;52.986;8.894;2023-04-01T02:16:08;9.98;;;4.55;;
78443;SDS011;67739;52.986;8.894;2023-04-01T02:18:39;9.90;;;4.35;;
78443;SDS011;67739;52.986;8.894;2023-04-01T02:21:05;11.70;;;4.28;;
78443;SDS011;67739;52.986;8.894;2023-04-01T02:23:33;8.57;;;4.00;;
78443;SDS011;67739;52.986;8.894;2023-04-01T02:26:01;9.27;;;4.00;;
78443;SDS011;67739;52.986;8.894;2023-04-01T02:28:27;10.27;;;4.15;;
78443;SDS011;67739;52.986;8.894;2023-04-01T02:30:56;9.60;;;3.95;;
78443;SDS011;67739;52.986;8.894;2023-04-01T02:33:25;9.65;;;4.43;;
78443;SDS011;67739;52.986;8.894;2023-04-01T02:35:52;9.32;;;3.75;;
78443;SDS011;67739;52.986;8.894;2023-04-01T02:38:17;9.60;;;4.47;;
78443;SDS011;67739;52.986;8.894;2023-04-01T02:40:47;9.10;;;4.03;;
78443;SDS011;67739;52.986;8.894;2023-04-01T02:43:15;9.27;;;4.22;;
78443;SDS011;67739;52.986;8.894;2023-04-01T02:45:41;8.75;;;4.30;;
78443;SDS011;67739;52.986;8.894;2023-04-01T02:48:07;8.65;;;3.72;;
78443;SDS011;67739;52.986;8.894;2023-04-01T02:50:33;8.00;;;3.10;;
78443;SDS011;67739;52.986;8.894;2023-04-01T02:52:58;9.60;;;3.63;;
78443;SDS011;67739;52.986;8.894;2023-04-01T02:55:23;10.20;;;3.58;;
78443;SDS011;67739;52.986;8.894;2023-04-01T02:57:49;8.25;;;3.17;;
78443;SDS011;67739;52.986;8.894;2023-04-01T03:00:16;10.23;;;3.42;;
78443;SDS011;67739;52.986;8.894;2023-04-01T03:02:41;7.50;;;3.50;;
78443;SDS011;67739;52.986;8.894;2023-04-01T03:05:09;7.53;;;3.40;;
78443;SDS011;67739;52.986;8.894;2023-04-01T03:07:35;8.05;;;3.42;;
78443;SDS011;67739;52.986;8.894;2023-04-01T03:10:00;9.70;;;3.85;;
78443;SDS011;67739;52.986;8.894;2023-04-01T03:12:25;7.80;;;2.90;;
78443;SDS011;67739;52.986;8.894;2023-04-01T03:14:51;10.30;;;3.63;;
78443;SDS011;67739;52.986;8.894;2023-04-01T03:17:16;10.23;;;3.50;;
78443;SDS011;67739;52.986;8.894;2023-04-01T03:19:41;9.73;;;3.45;;
78443;SDS011;67739;52.986;8.894;2023-04-01T03:22:07;7.45;;;2.72;;
78443;SDS011;67739;52.986;8.894;2023-04-01T03:24:35;8.98;;;3.38;;
78443;SDS011;67739;52.986;8.894;2023-04-01T03:27:00;8.40;;;3.60;;
78443;SDS011;67739;52.986;8.894;2023-04-01T03:29:26;7.40;;;2.47;;
78443;SDS011;67739;52.986;8.894;2023-04-01T03:31:51;8.45;;;3.28;;
78443;SDS011;67739;52.986;8.894;2023-04-01T03:34:16;12.65;;;4.30;;
78443;SDS011;67739;52.986;8.894;2023-04-01T03:36:42;11.30;;;4.18;;
78443;SDS011;67739;52.986;8.894;2023-04-01T03:39:07;9.32;;;3.38;;
78443;SDS011;67739;52.986;8.894;2023-04-01T03:41:34;8.05;;;3.53;;
78443;SDS011;67739;52.986;8.894;2023-04-01T03:44:01;8.77;;;3.05;;
78443;SDS011;67739;52.986;8.894;2023-04-01T03:46:26;10.63;;;3.63;;
78443;SDS011;67739;52.986;8.894;2023-04-01T03:48:51;9.80;;;3.15;;
78443;SDS011;67739;52.986;8.894;2023-04-01T03:51:17;7.32;;;2.85;;
78443;SDS011;67739;52.986;8.894;2023-04-01T03:53:42;8.45;;;3.10;;
78443;SDS011;67739;52.986;8.894;2023-04-01T03:56:07;8.95;;;3.75;;
78443;SDS011;67739;52.986;8.894;2023-04-01T03:58:34;7.75;;;3.25;;
78443;SDS011;67739;52.986;8.894;2023-04-01T04:01:00;8.20;;;3.13;;
78443;SDS011;67739;52.986;8.894;2023-04-01T04:03:25;8.63;;;3.47;;
78443;SDS011;67739;52.986;8.894;2023-04-01T04:05:51;8.68;;;2.78;;
78443;SDS011;67739;52.986;8.894;2023-04-01T04:08:16;8.30;;;2.95;;
78443;SDS011;67739;52.986;8.894;2023-04-01T04:10:43;9.35;;;3.38;;
78443;SDS011;67739;52.986;8.894;2023-04-01T04:13:08;10.13;;;3.80;;
78443;SDS011;67739;52.986;8.894;2023-04-01T04:15:34;9.00;;;2.88;;
78443;SDS011;67739;52.986;8.894;2023-04-01T04:17:59;8.43;;;3.20;;
78443;SDS011;67739;52.986;8.894;2023-04-01T04:20:24;10.00;;;3.10;;
78443;SDS011;67739;52.986;8.894;2023-04-01T04:22:50;8.95;;;2.97;;
78443;SDS011;67739;52.986;8.894;2023-04-01T04:25:15;7.40;;;2.80;;
78443;SDS011;67739;52.986;8.894;2023-04-01T04:27:40;9.07;;;2.13;;
78443;SDS011;67739;52.986;8.894;2023-04-01T04:30:06;9.35;;;2.50;;
78443;SDS011;67739;52.986;8.894;2023-04-01T04:32:32;7.72;;;2.65;;
78443;SDS011;67739;52.986;8.894;2023-04-01T04:34:58;10.70;;;3.08;;
78443;SDS011;67739;52.986;8.894;2023-04-01T04:37:23;7.55;;;2.30;;
78443;SDS011;67739;52.986;8.894;2023-04-01T04:39:50;7.50;;;2.90;;
78443;SDS011;67739;52.986;8.894;2023-04-01T04:42:16;7.57;;;2.60;;
78443;SDS011;67739;52.986;8.894;2023-04-01T04:44:41;6.85;;;2.40;;
78443;SDS011;67739;52.986;8.894;2023-04-01T04:47:06;11.45;;;3.17;;
78443;SDS011;67739;52.986;8.894;2023-04-01T04:49:32;8.93;;;4.10;;
78443;SDS011;67739;52.986;8.894;2023-04-01T04:51:57;7.25;;;2.47;;
78443;SDS011;67739;52.986;8.894;2023-04-01T04:54:22;9.60;;;2.42;;
78443;SDS011;67739;52.986;8.894;2023-04-01T04:56:48;9.27;;;3.63;;
78443;SDS011;67739;52.986;8.894;2023-04-01T04:59:13;7.22;;;2.45;;
78443;SDS011;67739;52.986;8.894;2023-04-01T05:01:38;7.47;;;2.67;;
78443;SDS011;67739;52.986;8.894;2023-04-01T05:04:04;8.85;;;3.28;;
78443;SDS011;67739;52.986;8.894;2023-04-01T05:06:30;7.38;;;3.03;;
78443;SDS011;67739;52.986;8.894;2023-04-01T05:08:56;6.70;;;2.25;;
78443;SDS011;67739;52.986;8.894;2023-04-01T05:11:21;6.93;;;2.22;;
78443;SDS011;67739;52.986;8.894;2023-04-01T05:13:47;9.30;;;2.20;;
78443;SDS011;67739;52.986;8.894;2023-04-01T05:16:16;7.18;;;1.90;;
78443;SDS011;67739;52.986;8.894;2023-04-01T05:18:43;7.22;;;2.53;;
78443;SDS011;67739;52.986;8.894;2023-04-01T05:21:09;8.07;;;2.38;;
78443;SDS011;67739;52.986;8.894;2023-04-01T05:23:36;9.00;;;2.78;;
78443;SDS011;67739;52.986;8.894;2023-04-01T05:26:06;7.53;;;2.35;;
78443;SDS011;67739;52.986;8.894;2023-04-01T05:28:32;6.70;;;2.40;;
78443;SDS011;67739;52.986;8.894;2023-04-01T05:31:01;7.25;;;2.92;;
78443;SDS011;67739;52.986;8.894;2023-04-01T05:33:30;7.93;;;2.35;;
78443;SDS011;67739;52.986;8.894;2023-04-01T05:35:56;6.68;;;2.42;;
78443;SDS011;67739;52.986;8.894;2023-04-01T05:38:22;8.55;;;2.63;;
78443;SDS011;67739;52.986;8.894;2023-04-01T05:40:47;8.43;;;2.58;;
78443;SDS011;67739;52.986;8.894;2023-04-01T05:43:13;6.78;;;1.90;;
78443;SDS011;67739;52.986;8.894;2023-04-01T05:45:38;7.10;;;2.40;;
78443;SDS011;67739;52.986;8.894;2023-04-01T05:48:04;7.38;;;2.63;;
78443;SDS011;67739;52.986;8.894;2023-04-01T05:50:29;5.85;;;2.38;;
78443;SDS011;67739;52.986;8.894;2023-04-01T05:52:55;7.00;;;2.10;;
78443;SDS011;67739;52.986;8.894;2023-04-01T05:55:20;8.80;;;1.83;;
78443;SDS011;67739;52.986;8.894;2023-04-01T05:57:46;7.65;;;1.75;;
78443;SDS011;67739;52.986;8.894;2023-04-01T06:00:13;5.03;;;1.65;;
78443;SDS011;67739;52.986;8.894;2023-04-01T06:02:39;5.55;;;1.85;;
78443;SDS011;67739;52.986;8.894;2023-04-01T06:05:23;4.43;;;1.50;;
78443;SDS011;67739;52.986;8.894;2023-04-01T06:07:50;4.45;;;1.40;;
78443;SDS011;67739;52.986;8.894;2023-04-01T06:10:25;5.85;;;1.38;;
78443;SDS011;67739;52.986;8.894;2023-04-01T06:15:53;4.93;;;1.33;;
78443;SDS011;67739;52.986;8.894;2023-04-01T06:18:39;6.03;;;1.30;;
78443;SDS011;67739;52.986;8.894;2023-04-01T06:24:16;6.20;;;1.27;;
78443;SDS011;67739;52.986;8.894;2023-04-01T06:42:50;4.25;;;0.93;;
78443;SDS011;67739;52.986;8.894;2023-04-01T06:45:32;3.45;;;0.77;;
78443;SDS011;67739;52.986;8.894;2023-04-01T06:56:21;4.15;;;1.10;;
78443;SDS011;67739;52.986;8.894;2023-04-01T06:58:59;6.22;;;1.20;;
78443;SDS011;67739;52.986;8.894;2023-04-01T07:01:47;6.10;;;1.17;;
78443;SDS011;67739;52.986;8.894;2023-04-01T07:04:32;4.38;;;1.45;;
78443;SDS011;67739;52.986;8.894;2023-04-01T07:07:14;3.38;;;0.98;;
78443;SDS011;67739;52.986;8.894;2023-04-01T07:12:11;3.42;;;0.65;;
78443;SDS011;67739;52.986;8.894;2023-04-01T07:14:44;2.85;;;0.93;;
78443;SDS011;67739;52.986;8.894;2023-04-01T07:17:15;4.18;;;1.02;;
78443;SDS011;67739;52.986;8.894;2023-04-01T07:24:56;3.40;;;0.80;;
78443;SDS011;67739;52.986;8.894;2023-04-01T07:27:26;4.97;;;1.10;;
78443;SDS011;67739;52.986;8.894;2023-04-01T07:29:51;3.67;;;0.98;;
78443;SDS011;67739;52.986;8.894;2023-04-01T07:34:50;5.68;;;1.15;;
78443;SDS011;67739;52.986;8.894;2023-04-01T07:40:05;4.28;;;1.10;;
78443;SDS011;67739;52.986;8.894;2023-04-01T07:54:16;2.97;;;0.70;;
78443;SDS011;67739;52.986;8.894;2023-04-01T07:56:36;3.67;;;1.00;;
78443;SDS011;67739;52.986;8.894;2023-04-01T08:05:14;5.72;;;1.40;;
78443;SDS011;67739;52.986;8.894;2023-04-01T08:08:17;4.10;;;0.82;;
78443;SDS011;67739;52.986;8.894;2023-04-01T08:10:59;3.13;;;1.42;;
78443;SDS011;67739;52.986;8.894;2023-04-01T08:19:20;3.03;;;0.90;;
78443;SDS011;67739;52.986;8.894;2023-04-01T08:21:52;4.95;;;0.70;;
78443;SDS011;67739;52.986;8.894;2023-04-01T08:24:27;5.13;;;0.95;;
78443;SDS011;67739;52.986;8.894;2023-04-01T08:26:58;3.80;;;0.95;;
78443;SDS011;67739;52.986;8.894;2023-04-01T08:32:39;3.58;;;1.42;;
78443;SDS011;67739;52.986;8.894;2023-04-01T08:35:31;4.30;;;1.00;;
78443;SDS011;67739;52.986;8.894;2023-04-01T08:37:59;3.22;;;0.68;;
78443;SDS011;67739;52.986;8.894;2023-04-01T08:40:51;5.82;;;1.13;;
78443;SDS011;67739;52.986;8.894;2023-04-01T08:51:17;3.40;;;0.80;;
78443;SDS011;67739;52.986;8.894;2023-04-01T09:10:59;2.90;;;0.77;;
78443;SDS011;67739;52.986;8.894;2023-04-01T09:13:49;3.22;;;1.10;;
78443;SDS011;67739;52.986;8.894;2023-04-01T09:16:37;2.83;;;1.00;;
78443;SDS011;67739;52.986;8.894;2023-04-01T09:19:28;3.85;;;0.90;;
78443;SDS011;67739;52.986;8.894;2023-04-01T09:28:07;3.92;;;1.10;;
78443;SDS011;67739;52.986;8.894;2023-04-01T09:30:46;3.03;;;0.90;;
78443;SDS011;67739;52.986;8.894;2023-04-01T09:33:36;3.22;;;0.80;;
78443;SDS011;67739;52.986;8.894;2023-04-01T09:44:33;3.67;;;1.02;;
78443;SDS011;67739;52.986;8.894;2023-04-01T09:49:50;2.85;;;0.85;;
78443;SDS011;67739;52.986;8.894;2023-04-01T09:52:45;2.90;;;1.02;;
78443;SDS011;67739;52.986;8.894;2023-04-01T09:58:16;2.60;;;0.50;;
78443;SDS011;67739;52.986;8.894;2023-04-01T10:09:38;1.10;;;0.30;;
78443;SDS011;67739;52.986;8.894;2023-04-01T10:35:03;1.02;;;0.20;;
78443;SDS011;67739;52.986;8.894;2023-04-01T10:41:26;1.02;;;0.10;;
78443;SDS011;67739;52.986;8.894;2023-04-01T10:47:23;0.20;;;0.00;;
78443;SDS011;67739;52.986;8.894;2023-04-01T10:53:36;1.23;;;0.10;;
78443;SDS011;67739;52.986;8.894;2023-04-01T11:01:43;0.45;;;0.10;;
78443;SDS011;67739;52.986;8.894;2023-04-01T11:18:14;0.77;;;0.20;;
78443;SDS011;67739;52.986;8.894;2023-04-01T11:29:25;1.35;;;0.30;;
78443;SDS011;67739;52.986;8.894;2023-04-01T11:43:37;1.52;;;0.20;;
78443;SDS011;67739;52.986;8.894;2023-04-01T12:00:28;1.17;;;0.40;;
78443;SDS011;67739;52.986;8.894;2023-04-01T12:11:27;1.85;;;0.43;;
78443;SDS011;67739;52.986;8.894;2023-04-01T12:14:27;2.30;;;0.30;;
78443;SDS011;67739;52.986;8.894;2023-04-01T12:19:54;1.98;;;0.43;;
78443;SDS011;67739;52.986;8.894;2023-04-01T12:22:40;1.13;;;0.30;;
78443;SDS011;67739;52.986;8.894;2023-04-01T12:28:29;1.30;;;0.30;;
78443;SDS011;67739;52.986;8.894;2023-04-01T12:42:23;1.10;;;0.30;;
78443;SDS011;67739;52.986;8.894;2023-04-01T12:53:28;1.35;;;0.30;;
78443;SDS011;67739;52.986;8.894;2023-04-01T12:56:07;1.48;;;0.28;;
78443;SDS011;67739;52.986;8.894;2023-04-01T13:18:06;1.25;;;0.30;;
78443;SDS011;67739;52.986;8.894;2023-04-01T13:21:02;1.40;;;0.17;;
78443;SDS011;67739;52.986;8.894;2023-04-01T13:23:43;1.58;;;0.22;;
78443;SDS011;67739;52.986;8.894;2023-04-01T13:26:45;1.52;;;0.35;;
78443;SDS011;67739;52.986;8.894;2023-04-01T13:37:37;1.80;;;0.20;;
78443;SDS011;67739;52.986;8.894;2023-04-01T13:43:43;1.55;;;0.28;;
78443;SDS011;67739;52.986;8.894;2023-04-01T13:49:18;0.80;;;0.30;;
78443;SDS011;67739;52.986;8.894;2023-04-01T13:52:08;1.13;;;0.35;;
78443;SDS011;67739;52.986;8.894;2023-04-01T13:54:42;1.88;;;0.40;;
78443;SDS011;67739;52.986;8.894;2023-04-01T13:57:42;2.28;;;0.40;;
78443;SDS011;67739;52.986;8.894;2023-04-01T14:00:29;0.85;;;0.22;;
78443;SDS011;67739;52.986;8.894;2023-04-01T14:11:33;1.17;;;0.40;;
78443;SDS011;67739;52.986;8.894;2023-04-01T14:27:26;2.53;;;0.47;;
78443;SDS011;67739;52.986;8.894;2023-04-01T14:35:48;1.33;;;0.28;;
78443;SDS011;67739;52.986;8.894;2023-04-01T14:40:56;1.05;;;0.30;;
78443;SDS011;67739;52.986;8.894;2023-04-01T14:43:47;1.20;;;0.30;;
78443;SDS011;67739;52.986;8.894;2023-04-01T14:52:04;2.05;;;0.57;;
78443;SDS011;67739;52.986;8.894;2023-04-01T14:54:36;2.13;;;0.50;;
78443;SDS011;67739;52.986;8.894;2023-04-01T14:57:14;2.42;;;0.47;;
78443;SDS011;67739;52.986;8.894;2023-04-01T15:13:49;10.05;;;0.98;;
78443;SDS011;67739;52.986;8.894;2023-04-01T15:33:16;3.33;;;0.95;;
78443;SDS011;67739;52.986;8.894;2023-04-01T15:38:52;6.28;;;1.42;;
78443;SDS011;67739;52.986;8.894;2023-04-01T15:44:00;4.25;;;1.13;;
78443;SDS011;67739;52.986;8.894;2023-04-01T15:46:41;3.33;;;1.08;;
78443;SDS011;67739;52.986;8.894;2023-04-01T15:49:14;5.03;;;1.52;;
78443;SDS011;67739;52.986;8.894;2023-04-01T15:52:02;4.75;;;1.00;;
78443;SDS011;67739;52.986;8.894;2023-04-01T16:11:28;5.13;;;1.38;;
78443;SDS011;67739;52.986;8.894;2023-04-01T16:14:12;6.68;;;1.27;;
78443;SDS011;67739;52.986;8.894;2023-04-01T16:19:24;6.32;;;1.48;;
78443;SDS011;67739;52.986;8.894;2023-04-01T16:24:59;5.97;;;1.23;;
78443;SDS011;67739;52.986;8.894;2023-04-01T16:27:33;3.10;;;0.82;;
78443;SDS011;67739;52.986;8.894;2023-04-01T16:32:50;4.68;;;1.48;;
78443;SDS011;67739;52.986;8.894;2023-04-01T16:35:37;6.25;;;1.52;;
78443;SDS011;67739;52.986;8.894;2023-04-01T16:38:39;4.97;;;2.20;;
78443;SDS011;67739;52.986;8.894;2023-04-01T16:41:17;3.97;;;1.33;;
78443;SDS011;67739;52.986;8.894;2023-04-01T16:43:52;3.92;;;1.45;;
78443;SDS011;67739;52.986;8.894;2023-04-01T16:51:24;4.00;;;0.73;;
78443;SDS011;67739;52.986;8.894;2023-04-01T16:54:16;2.75;;;0.68;;
78443;SDS011;67739;52.986;8.894;2023-04-01T16:57:01;3.67;;;1.10;;
78443;SDS011;67739;52.986;8.894;2023-04-01T16:59:57;3.10;;;0.73;;
78443;SDS011;67739;52.986;8.894;2023-04-01T17:02:33;4.70;;;1.60;;
78443;SDS011;67739;52.986;8.894;2023-04-01T17:05:13;4.32;;;1.20;;
78443;SDS011;67739;52.986;8.894;2023-04-01T17:19:15;4.10;;;1.30;;
78443;SDS011;67739;52.986;8.894;2023-04-01T17:27:14;6.07;;;2.20;;
78443;SDS011;67739;52.986;8.894;2023-04-01T17:32:40;4.53;;;1.00;;
78443;SDS011;67739;52.986;8.894;2023-04-01T17:41:52;5.57;;;1.40;;
78443;SDS011;67739;52.986;8.894;2023-04-01T18:17:25;10.00;;;3.90;;
78443;SDS011;67739;52.986;8.894;2023-04-01T18:25:34;10.32;;;5.10;;
78443;SDS011;67739;52.986;8.894;2023-04-01T18:30:56;11.07;;;3.00;;
78443;SDS011;67739;52.986;8.894;2023-04-01T18:33:42;8.70;;;3.60;;
78443;SDS011;67739;52.986;8.894;2023-04-01T18:44:54;8.77;;;3.42;;
78443;SDS011;67739;52.986;8.894;2023-04-01T18:47:27;8.10;;;2.45;;
78443;SDS011;67739;52.986;8.894;2023-04-01T18:50:24;8.88;;;3.80;;
78443;SDS011;67739;52.986;8.894;2023-04-01T18:56:00;7.72;;;3.63;;
78443;SDS011;67739;52.986;8.894;2023-04-01T19:03:48;7.97;;;2.83;;
78443;SDS011;67739;52.986;8.894;2023-04-01T19:06:20;7.88;;;3.15;;
78443;SDS011;67739;52.986;8.894;2023-04-01T19:08:52;9.82;;;3.65;;
78443;SDS011;67739;52.986;8.894;2023-04-01T19:19:20;10.63;;;2.72;;
78443;SDS011;67739;52.986;8.894;2023-04-01T19:35:19;9.75;;;3.10;;
78443;SDS011;67739;52.986;8.894;2023-04-01T19:37:51;10.63;;;4.38;;
78443;SDS011;67739;52.986;8.894;2023-04-01T19:40:27;9.45;;;4.22;;
78443;SDS011;67739;52.986;8.894;2023-04-01T19:45:26;7.40;;;3.73;;
78443;SDS011;67739;52.986;8.894;2023-04-01T19:50:40;10.40;;;4.38;;
78443;SDS011;67739;52.986;8.894;2023-04-01T19:53:14;8.20;;;4.15;;
78443;SDS011;67739;52.986;8.894;2023-04-01T20:04:01;10.73;;;4.45;;
78443;SDS011;67739;52.986;8.894;2023-04-01T20:06:43;8.45;;;5.03;;
78443;SDS011;67739;52.986;8.894;2023-04-01T20:15:19;8.95;;;3.28;;
78443;SDS011;67739;52.986;8.894;2023-04-01T20:17:50;12.23;;;4.50;;
78443;SDS011;67739;52.986;8.894;2023-04-01T20:20:19;9.70;;;4.25;;
78443;SDS011;67739;52.986;8.894;2023-04-01T20:27:41;9.07;;;4.57;;
78443;SDS011;67739;52.986;8.894;2023-04-01T20:30:21;13.05;;;4.45;;
78443;SDS011;67739;52.986;8.894;2023-04-01T20:36:13;8.00;;;3.92;;
78443;SDS011;67739;52.986;8.894;2023-04-01T20:43:51;12.85;;;4.55;;
78443;SDS011;67739;52.986;8.894;2023-04-01T20:46:23;9.80;;;4.22;;
78443;SDS011;67739;52.986;8.894;2023-04-01T20:57:32;10.57;;;3.90;;
78443;SDS011;67739;52.986;8.894;2023-04-01T21:00:29;8.25;;;3.63;;
78443;SDS011;67739;52.986;8.894;2023-04-01T21:14:03;9.55;;;3.50;;
78443;SDS011;67739;52.986;8.894;2023-04-01T21:17:01;6.53;;;2.55;;
78443;SDS011;67739;52.986;8.894;2023-04-01T21:20:17;6.90;;;2.53;;
78443;SDS011;67739;52.986;8.894;2023-04-01T21:22:46;10.45;;;4.75;;
78443;SDS011;67739;52.986;8.894;2023-04-01T21:36:24;6.78;;;3.03;;
78443;SDS011;67739;52.986;8.894;2023-04-01T21:42:06;7.95;;;4.22;;
78443;SDS011;67739;52.986;8.894;2023-04-01T21:47:53;9.98;;;3.55;;
78443;SDS011;67739;52.986;8.894;2023-04-01T21:50:35;7.32;;;2.78;;
78443;SDS011;67739;52.986;8.894;2023-04-01T22:12:34;9.38;;;3.05;;
78443;SDS011;67739;52.986;8.894;2023-04-01T22:15:13;6.75;;;2.55;;
78443;SDS011;67739;52.986;8.894;2023-04-01T22:17:46;3.80;;;1.30;;
78443;SDS011;67739;52.986;8.894;2023-04-01T22:30:55;7.05;;;2.60;;
78443;SDS011;67739;52.986;8.894;2023-04-01T22:33:38;5.93;;;2.20;;
78443;SDS011;67739;52.986;8.894;2023-04-01T22:36:37;5.28;;;1.55;;
78443;SDS011;67739;52.986;8.894;2023-04-01T22:52:29;7.53;;;2.75;;
78443;SDS011;67739;52.986;8.894;2023-04-01T22:55:08;7.50;;;2.03;;
78443;SDS011;67739;52.986;8.894;2023-04-01T23:00:30;6.82;;;1.83;;
78443;SDS011;67739;52.986;8.894;2023-04-01T23:03:04;7.70;;;1.42;;
78443;SDS011;67739;52.986;8.894;2023-04-01T23:05:53;8.13;;;1.75;;
78443;SDS011;67739;52.986;8.894;2023-04-01T23:16:47;6.38;;;2.15;;
78443;SDS011;67739;52.986;8.894;2023-04-01T23:25:01;4.28;;;1.15;;
78443;SDS011;67739;52.986;8.894;2023-04-01T23:27:54;6.35;;;1.00;;
78443;SDS011;67739;52.986;8.894;2023-04-01T23:38:35;6.85;;;1.40;;
78443;SDS011;67739;52.986;8.894;2023-04-01T23:41:03;3.90;;;0.90;;
78443;SDS011;67739;52.986;8.894;2023-04-01T23:43:30;8.68;;;1.40;;
78443;SDS011;67739;52.986;8.894;2023-04-01T23:46:00;4.97;;;1.15;;
78443;SDS011;67739;52.986;8.894;2023-04-01T23:48:42;7.78;;;1.17;;
78443;SDS011;67739;52.986;8.894;2023-04-01T23:51:17;8.10;;;1.08;;
78443;SDS011;67739;52.986;8.894;2023-04-01T23:53:46;6.90;;;1.88;;
78443;SDS011;67739;52.986;8.894;2023-04-01T23:56:15;3.70;;;0.80;;
78443;SDS011;67739;52.986;8.894;2023-04-01T23:58:44;1.80;;;0.57;;
